createdAt,value
2023-05-03T00:00:02.423Z,1.50
2023-05-03T00:04:07.814Z,2.10
2023-05-03T00:08:06.295Z,1.80
2023-05-03T00:12:07.634Z,1.80
2023-05-03T00:16:06.282Z,1.70
2023-05-03T00:20:07.828Z,1.80
2023-05-03T00:24:06.164Z,1.80
2023-05-03T00:28:07.700Z,1.80
2023-05-03T00:32:05.192Z,2.10
2023-05-03T00:36:06.796Z,1.70
2023-05-03T00:40:05.575Z,2.20
2023-05-03T00:44:07.165Z,2.10
2023-05-03T00:48:06.388Z,2.00
2023-05-03T00:52:08.084Z,1.70
2023-05-03T00:56:06.233Z,2.00
2023-05-03T01:00:07.969Z,2.20
2023-05-03T01:04:06.381Z,2.20
2023-05-03T01:08:08.130Z,1.80
2023-05-03T01:12:06.673Z,1.80
2023-05-03T01:16:02.472Z,2.30
2023-05-03T01:20:02.038Z,2.20
2023-05-03T01:23:57.467Z,2.10
2023-05-03T01:27:56.639Z,2.10
2023-05-03T01:31:52.799Z,1.90
2023-05-03T01:35:52.132Z,2.90
2023-05-03T01:39:47.509Z,2.10
2023-05-03T01:43:46.416Z,1.90
2023-05-03T01:47:43.727Z,2.10
2023-05-03T01:51:43.299Z,1.90
2023-05-03T01:55:39.308Z,2.20
2023-05-03T01:59:38.627Z,2.10
2023-05-03T02:03:34.741Z,1.90
2023-05-03T02:07:34.091Z,1.60
2023-05-03T02:11:29.663Z,2.20
2023-05-03T02:15:29.201Z,1.90
2023-05-03T02:19:25.626Z,1.90
2023-05-03T02:23:25.201Z,1.80
2023-05-03T02:27:21.990Z,2.30
2023-05-03T02:31:21.127Z,1.90
2023-05-03T02:35:16.663Z,2.10
2023-05-03T02:39:15.703Z,1.70
2023-05-03T02:43:10.446Z,1.70
2023-05-03T02:47:10.505Z,1.90
2023-05-03T02:51:08.781Z,2.10
2023-05-03T02:55:08.156Z,1.40
2023-05-03T02:59:03.826Z,2.00
2023-05-03T03:03:03.501Z,2.40
2023-05-03T03:07:08.441Z,2.20
2023-05-03T03:11:10.662Z,1.80
2023-05-03T03:15:09.471Z,1.70
2023-05-03T03:19:11.491Z,1.80
2023-05-03T03:23:09.601Z,1.40
2023-05-03T03:27:03.691Z,2.00
2023-05-03T03:30:49.298Z,1.80
2023-05-03T03:34:38.385Z,1.90
2023-05-03T03:38:23.689Z,1.70
2023-05-03T03:42:12.172Z,2.20
2023-05-03T03:45:57.319Z,2.10
2023-05-03T03:49:49.661Z,1.70
2023-05-03T03:53:47.366Z,1.70
2023-05-03T03:57:47.702Z,1.70
2023-05-03T04:01:43.610Z,1.70
2023-05-03T04:05:46.594Z,1.50
2023-05-03T04:09:46.894Z,1.50
2023-05-03T04:13:42.993Z,1.60
2023-05-03T04:17:42.719Z,1.70
2023-05-03T04:21:36.701Z,1.70
2023-05-03T04:25:21.828Z,1.50
2023-05-03T04:29:12.534Z,1.70
2023-05-03T04:32:58.582Z,1.50
2023-05-03T04:36:44.408Z,1.50
2023-05-03T04:40:30.013Z,1.60
2023-05-03T04:44:27.962Z,1.60
2023-05-03T04:48:21.534Z,1.90
2023-05-03T04:52:13.952Z,1.80
2023-05-03T04:56:11.613Z,1.70
2023-05-03T05:00:12.756Z,1.40
2023-05-03T05:04:12.524Z,1.60
2023-05-03T05:08:16.891Z,1.80
2023-05-03T05:12:18.472Z,1.90
2023-05-03T05:16:18.739Z,1.90
2023-05-03T05:20:19.748Z,1.80
2023-05-03T05:24:21.694Z,1.60
2023-05-03T05:28:21.642Z,1.40
2023-05-03T05:32:18.247Z,1.50
2023-05-03T05:36:17.606Z,2.40
2023-05-03T05:40:15.631Z,1.40
2023-05-03T05:44:22.589Z,1.30
2023-05-03T05:48:19.747Z,1.60
2023-05-03T05:52:19.819Z,1.70
2023-05-03T05:56:17.651Z,1.50
2023-05-03T06:00:17.665Z,1.30
2023-05-03T06:04:15.619Z,1.40
2023-05-03T06:08:14.835Z,1.20
2023-05-03T06:12:09.901Z,1.10
2023-05-03T06:16:12.771Z,1.50
2023-05-03T06:20:08.268Z,1.70
2023-05-03T06:24:07.962Z,1.30
2023-05-03T06:28:03.061Z,1.50
2023-05-03T06:32:04.605Z,1.60
2023-05-03T06:36:00.990Z,1.70
2023-05-03T06:40:00.132Z,2.30
2023-05-03T06:43:56.233Z,1.20
2023-05-03T06:47:55.994Z,1.60
2023-05-03T06:51:51.933Z,1.50
2023-05-03T06:55:51.869Z,1.00
2023-05-03T06:59:47.023Z,1.40
2023-05-03T07:03:46.120Z,1.40
2023-05-03T07:07:51.130Z,1.20
2023-05-03T07:11:52.316Z,1.40
2023-05-03T07:15:51.055Z,0.90
2023-05-03T07:19:52.860Z,1.50
2023-05-03T07:23:50.956Z,1.10
2023-05-03T07:27:52.532Z,1.10
2023-05-03T07:31:53.338Z,1.30
2023-05-03T07:35:55.513Z,1.10
2023-05-03T07:39:53.968Z,1.10
2023-05-03T07:43:55.278Z,1.00
2023-05-03T07:47:54.214Z,1.00
2023-05-03T07:51:55.965Z,1.20
2023-05-03T07:55:53.861Z,1.10
2023-05-03T07:59:55.363Z,1.20
2023-05-03T08:03:54.495Z,1.30
2023-05-03T08:07:56.594Z,1.50
2023-05-03T08:11:55.136Z,1.10
2023-05-03T08:15:56.552Z,1.30
2023-05-03T08:19:55.116Z,1.20
2023-05-03T08:23:56.898Z,1.40
2023-05-03T08:27:54.971Z,1.10
2023-05-03T08:31:56.573Z,1.40
2023-05-03T08:35:55.212Z,1.30
2023-05-03T08:39:56.599Z,0.90
2023-05-03T08:43:55.284Z,1.00
2023-05-03T08:47:56.897Z,1.40
2023-05-03T08:51:55.195Z,0.90
2023-05-03T08:55:57.122Z,1.20
2023-05-03T08:59:52.178Z,1.20
2023-05-03T09:03:53.680Z,1.40
2023-05-03T09:07:52.109Z,1.20
2023-05-03T09:11:53.678Z,1.20
2023-05-03T09:15:54.272Z,1.10
2023-05-03T09:19:55.693Z,1.10
2023-05-03T09:23:54.099Z,0.90
2023-05-03T09:27:55.716Z,0.90
2023-05-03T09:31:54.280Z,1.20
2023-05-03T09:35:55.597Z,0.90
2023-05-03T09:39:54.193Z,1.00
2023-05-03T09:43:55.735Z,1.10
2023-05-03T09:47:54.213Z,1.20
2023-05-03T09:51:48.804Z,1.00
2023-05-03T09:55:47.129Z,1.00
2023-05-03T09:59:48.644Z,1.00
2023-05-03T10:03:47.296Z,0.90
2023-05-03T10:07:48.790Z,1.20
2023-05-03T10:11:47.236Z,1.00
2023-05-03T10:15:48.814Z,0.90
2023-05-03T10:19:43.475Z,0.90
2023-05-03T10:23:44.694Z,0.90
2023-05-03T10:27:43.263Z,1.20
2023-05-03T10:31:43.991Z,0.70
2023-05-03T10:35:42.341Z,1.30
2023-05-03T10:39:41.711Z,0.80
2023-05-03T10:43:39.875Z,0.80
2023-05-03T10:47:39.719Z,1.00
2023-05-03T10:51:37.678Z,1.00
2023-05-03T10:55:35.493Z,0.90
2023-05-03T10:59:34.722Z,1.20
2023-05-03T11:03:32.390Z,1.10
2023-05-03T11:07:24.584Z,1.10
2023-05-03T11:11:26.156Z,1.20
2023-05-03T11:15:21.749Z,0.90
2023-05-03T11:19:21.305Z,0.90
2023-05-03T11:23:16.684Z,0.80
2023-05-03T11:27:16.063Z,0.80
2023-05-03T11:31:11.561Z,0.80
2023-05-03T11:35:08.828Z,0.80
2023-05-03T11:39:04.754Z,0.80
2023-05-03T11:42:55.333Z,1.00
2023-05-03T11:46:40.192Z,0.90
2023-05-03T11:50:25.303Z,0.80
2023-05-03T11:54:25.289Z,1.10
2023-05-03T11:58:29.098Z,0.70
2023-05-03T12:02:24.935Z,1.10
2023-05-03T12:06:24.385Z,1.10
2023-05-03T12:10:23.598Z,0.90
2023-05-03T12:14:28.929Z,1.20
2023-05-03T12:18:24.810Z,0.70
2023-05-03T12:22:26.366Z,0.70
2023-05-03T12:26:19.043Z,0.70
2023-05-03T12:30:04.534Z,0.70
2023-05-03T12:34:09.171Z,0.80
2023-05-03T12:37:55.954Z,1.00
2023-05-03T12:45:40.962Z,0.80
2023-05-03T12:53:19.146Z,0.60
2023-05-03T12:57:23.423Z,0.80
2023-05-03T13:02:05.095Z,1.20
2023-05-03T13:05:35.881Z,0.80
2023-05-03T13:10:12.256Z,0.90
2023-05-03T13:13:38.460Z,0.70
2023-05-03T13:17:27.117Z,0.80
2023-05-03T13:21:12.181Z,0.70
2023-05-03T13:25:07.831Z,0.90
2023-05-03T13:29:07.146Z,0.60
2023-05-03T13:33:11.009Z,1.00
2023-05-03T13:37:10.183Z,0.70
2023-05-03T13:41:05.682Z,0.80
2023-05-03T13:45:02.540Z,0.80
2023-05-03T13:48:57.885Z,0.70
2023-05-03T13:52:54.943Z,0.70
2023-05-03T13:56:51.090Z,0.70
2023-05-03T14:00:50.320Z,0.70
2023-05-03T14:04:45.878Z,0.80
2023-05-03T14:08:45.155Z,1.20
2023-05-03T14:12:41.144Z,0.80
2023-05-03T14:16:42.243Z,0.70
2023-05-03T14:20:38.024Z,0.80
2023-05-03T14:24:37.266Z,0.90
2023-05-03T14:28:32.992Z,1.20
2023-05-03T14:32:32.844Z,0.70
2023-05-03T14:36:29.147Z,0.90
2023-05-03T14:40:28.324Z,0.80
2023-05-03T14:44:23.705Z,1.20
2023-05-03T14:48:22.772Z,1.10
2023-05-03T14:52:17.905Z,0.90
2023-05-03T14:56:16.787Z,1.10
2023-05-03T15:00:11.983Z,0.80
2023-05-03T15:04:11.366Z,0.70
2023-05-03T15:08:07.025Z,0.80
2023-05-03T15:12:05.924Z,1.00
2023-05-03T15:16:01.230Z,0.90
2023-05-03T15:20:00.690Z,1.00
2023-05-03T15:23:55.803Z,1.00
2023-05-03T15:27:55.103Z,0.60
2023-05-03T15:31:51.217Z,0.90
2023-05-03T15:35:50.609Z,0.70
2023-05-03T15:39:46.144Z,0.90
2023-05-03T15:43:45.218Z,0.70
2023-05-03T15:47:41.194Z,0.90
2023-05-03T15:51:40.801Z,1.00
2023-05-03T15:55:36.955Z,1.00
2023-05-03T15:59:36.034Z,0.80
2023-05-03T16:03:31.056Z,0.80
2023-05-03T16:07:30.601Z,0.90
2023-05-03T16:11:26.171Z,1.00
2023-05-03T16:15:25.781Z,0.80
2023-05-03T16:19:21.535Z,0.80
2023-05-03T16:23:20.630Z,0.80
2023-05-03T16:27:16.190Z,1.00
2023-05-03T16:31:16.030Z,1.30
2023-05-03T16:35:12.471Z,0.80
2023-05-03T16:39:08.424Z,0.80
2023-05-03T16:43:07.595Z,1.40
2023-05-03T16:47:02.886Z,0.90
2023-05-03T16:51:02.236Z,1.30
2023-05-03T16:54:57.859Z,1.00
2023-05-03T16:58:57.260Z,0.90
2023-05-03T17:02:53.223Z,0.60
2023-05-03T17:06:52.878Z,0.70
2023-05-03T17:10:48.382Z,0.80
2023-05-03T17:14:47.897Z,0.90
2023-05-03T17:18:43.194Z,0.90
2023-05-03T17:22:42.829Z,0.90
2023-05-03T17:26:38.313Z,1.10
2023-05-03T17:30:37.887Z,1.00
2023-05-03T17:34:33.350Z,0.90
2023-05-03T17:38:33.007Z,1.20
2023-05-03T17:42:28.106Z,1.00
2023-05-03T17:46:27.186Z,1.00
2023-05-03T17:50:22.123Z,1.10
2023-05-03T17:54:21.338Z,0.80
2023-05-03T17:58:17.594Z,0.60
2023-05-03T18:02:17.307Z,0.80
2023-05-03T18:06:13.174Z,0.90
2023-05-03T18:10:11.983Z,1.10
2023-05-03T18:14:07.330Z,1.20
2023-05-03T18:18:06.684Z,1.00
2023-05-03T18:22:02.271Z,1.00
2023-05-03T18:26:01.268Z,1.20
2023-05-03T18:29:56.467Z,1.00
2023-05-03T18:33:56.051Z,1.00
2023-05-03T18:37:51.437Z,1.10
2023-05-03T18:41:50.981Z,1.30
2023-05-03T18:45:46.470Z,1.00
2023-05-03T18:49:45.978Z,1.20
2023-05-03T18:53:41.449Z,0.80
2023-05-03T18:57:41.043Z,1.10
2023-05-03T19:01:36.438Z,1.10
2023-05-03T19:05:35.783Z,1.10
2023-05-03T19:09:31.402Z,1.10
2023-05-03T19:13:31.045Z,1.40
2023-05-03T19:17:26.443Z,1.90
2023-05-03T19:21:25.725Z,1.30
2023-05-03T19:25:21.270Z,1.60
2023-05-03T19:29:20.569Z,1.20
2023-05-03T19:33:16.601Z,1.60
2023-05-03T19:37:16.011Z,1.70
2023-05-03T19:41:11.595Z,1.50
2023-05-03T19:45:07.523Z,1.50
2023-05-03T19:49:06.868Z,1.50
2023-05-03T19:53:02.320Z,1.50
2023-05-03T19:57:02.397Z,1.40
2023-05-03T20:00:57.582Z,1.50
2023-05-03T20:04:56.438Z,1.70
2023-05-03T20:08:52.395Z,1.40
2023-05-03T20:12:51.443Z,1.60
2023-05-03T20:16:46.917Z,1.50
2023-05-03T20:20:46.617Z,1.30
2023-05-03T20:24:42.308Z,1.60
2023-05-03T20:28:41.571Z,1.20
2023-05-03T20:32:37.930Z,1.20
2023-05-03T20:36:37.087Z,1.40
2023-05-03T20:40:32.521Z,1.40
2023-05-03T20:44:31.955Z,1.20
2023-05-03T20:48:27.916Z,1.20
2023-05-03T20:52:27.176Z,1.30
2023-05-03T20:56:22.787Z,1.20
2023-05-03T21:00:22.447Z,1.10
2023-05-03T21:04:17.388Z,1.60
2023-05-03T21:08:16.560Z,1.70
2023-05-03T21:12:12.374Z,1.30
2023-05-03T21:16:11.888Z,1.40
2023-05-03T21:20:07.731Z,1.40
2023-05-03T21:24:06.911Z,1.60
2023-05-03T21:28:02.683Z,1.20
2023-05-03T21:32:02.182Z,1.50
2023-05-03T21:35:57.483Z,1.40
2023-05-03T21:40:01.851Z,1.60
2023-05-03T21:43:47.919Z,1.40
2023-05-03T21:47:33.137Z,1.20
2023-05-03T21:51:18.200Z,1.00
2023-05-03T21:55:03.395Z,1.50
2023-05-03T21:58:48.386Z,1.40
2023-05-03T22:02:33.419Z,1.30
2023-05-03T22:06:24.366Z,1.30
2023-05-03T22:10:15.424Z,1.10
2023-05-03T22:14:08.360Z,1.40
2023-05-03T22:18:08.466Z,1.70
2023-05-03T22:22:04.066Z,1.50
2023-05-03T22:26:02.997Z,1.80
2023-05-03T22:29:58.736Z,1.50
2023-05-03T22:33:58.368Z,1.60
2023-05-03T22:37:54.081Z,1.10
2023-05-03T22:41:53.229Z,1.20
2023-05-03T22:45:48.747Z,1.40
2023-05-03T22:49:33.801Z,1.80
2023-05-03T22:53:19.112Z,1.20
2023-05-03T22:57:04.221Z,1.30
2023-05-03T23:00:49.185Z,1.30
2023-05-03T23:04:34.354Z,1.00
2023-05-03T23:08:34.495Z,1.40
2023-05-03T23:12:36.126Z,1.50
2023-05-03T23:16:34.558Z,1.50
2023-05-03T23:20:35.944Z,1.50
2023-05-03T23:24:34.638Z,1.50
2023-05-03T23:28:36.092Z,1.20
2023-05-03T23:32:34.559Z,1.60
2023-05-03T23:36:36.651Z,1.50
2023-05-03T23:40:34.652Z,1.30
2023-05-03T23:44:46.884Z,1.60
2023-05-03T23:48:53.472Z,1.30
2023-05-03T23:52:51.641Z,1.10
2023-05-03T23:56:52.719Z,1.40
